Pagina principale
METAR-TAF:

METAR-TAF

Aeroporti :

Roma, Italia

Aeroporto di Roma-Urbe

latitudine: 41-57N, longitudine: 012-30E, altezza: 18 m

Osservazione

Il bollettino è stato emesso 3 ore e 45 minuti fa, alle 16:50 UTC
Vento 2 kt da direzioni variabili
Temperature 28°C
Umidità 40%
Pressione 1003 hPa
Visibilità 10 km o più
Poco nuvoloso ad un'altezza di 3000 ft

METAR: LIRU 251650Z VRB02KT 9999 FEW030 28/13 Q1003

Ora: 22:35 (20:35 UTC)

Previsione

Il bollettino è stato emesso 6 ore e 35 minuti fa, alle 14:00 UTC
Previsione valida dal 25 alle 15 UTC al 25 alle 24 UTC
Vento 10 kt da ovest
Visibilità 10 km o più
Nubi sparse ad un'altezza di 3000 ft
Temporaneamente
dal 25 alle 15 UTC al 25 alle 18 UTC
temporale, pioggia
Evoluzione graduale
dal 25 alle 17 UTC al 25 alle 19 UTC
Vento 5 kt da direzioni variabili

TAF: LIRU 251400Z 2515/2524 26010KT 9999 SCT030 TEMPO 2515/2518 TSRA BECMG 2517/2519 VRB05KT

Osservazioni e previsioni meteorologiche di più di 4000 aeroporti (messaggi METAR e TAF).

Le stazioni disponibili sono rappresentate dai dischi gialli e rossi sulla carta.

Puntare il mouse per vedere il nome della stazione.

Clicca sopra per visualizzare le osservazioni e previsioni meteorologiche.

Per cambiare la mappa : fare clic sui pulsanti verdi con una croce nera per ingrandire, il pulsante verde con un trattino per diminuire, o sulla freccia verde per le mappe adiacenti.


METAR-TAF: